sensor_id;sensor_type;location;lat;lon;timestamp;temperature;humidity
68609;SHT31;55581;46.718;7.690;2023-04-27T00:01:30;10.67;75.14
68609;SHT31;55581;46.718;7.690;2023-04-27T00:03:57;10.73;74.28
68609;SHT31;55581;46.718;7.690;2023-04-27T00:06:22;10.73;74.56
68609;SHT31;55581;46.718;7.690;2023-04-27T00:08:48;10.67;76.96
68609;SHT31;55581;46.718;7.690;2023-04-27T00:11:13;10.63;77.47
68609;SHT31;55581;46.718;7.690;2023-04-27T00:13:39;10.56;76.55
68609;SHT31;55581;46.718;7.690;2023-04-27T00:16:04;10.49;76.29
68609;SHT31;55581;46.718;7.690;2023-04-27T00:18:31;10.46;76.35
68609;SHT31;55581;46.718;7.690;2023-04-27T00:20:57;10.39;78.74
68609;SHT31;55581;46.718;7.690;2023-04-27T00:23:22;10.37;77.57
68609;SHT31;55581;46.718;7.690;2023-04-27T00:25:48;10.28;79.03
68609;SHT31;55581;46.718;7.690;2023-04-27T00:28:13;10.19;79.97
68609;SHT31;55581;46.718;7.690;2023-04-27T00:30:41;10.02;82.50
68609;SHT31;55581;46.718;7.690;2023-04-27T00:33:09;9.80;83.33
68609;SHT31;55581;46.718;7.690;2023-04-27T00:35:34;9.65;84.42
68609;SHT31;55581;46.718;7.690;2023-04-27T00:38:00;9.57;81.43
68609;SHT31;55581;46.718;7.690;2023-04-27T00:40:25;9.64;79.70
68609;SHT31;55581;46.718;7.690;2023-04-27T00:42:50;9.67;80.65
68609;SHT31;55581;46.718;7.690;2023-04-27T00:45:16;9.61;79.87
68609;SHT31;55581;46.718;7.690;2023-04-27T00:47:42;9.58;80.48
68609;SHT31;55581;46.718;7.690;2023-04-27T00:50:08;9.60;80.84
68609;SHT31;55581;46.718;7.690;2023-04-27T00:52:36;9.77;78.11
68609;SHT31;55581;46.718;7.690;2023-04-27T00:55:03;9.88;78.76
68609;SHT31;55581;46.718;7.690;2023-04-27T00:57:29;9.92;79.06
68609;SHT31;55581;46.718;7.690;2023-04-27T00:59:55;10.03;77.96
68609;SHT31;55581;46.718;7.690;2023-04-27T01:02:21;10.06;77.73
68609;SHT31;55581;46.718;7.690;2023-04-27T01:04:49;10.06;76.64
68609;SHT31;55581;46.718;7.690;2023-04-27T01:07:15;10.12;76.86
68609;SHT31;55581;46.718;7.690;2023-04-27T01:09:45;10.15;76.19
68609;SHT31;55581;46.718;7.690;2023-04-27T01:12:10;10.16;76.43
68609;SHT31;55581;46.718;7.690;2023-04-27T01:14:36;10.09;77.65
68609;SHT31;55581;46.718;7.690;2023-04-27T01:17:06;10.02;77.15
68609;SHT31;55581;46.718;7.690;2023-04-27T01:19:31;9.94;78.05
68609;SHT31;55581;46.718;7.690;2023-04-27T01:21:56;9.73;80.32
68609;SHT31;55581;46.718;7.690;2023-04-27T01:24:24;9.58;80.60
68609;SHT31;55581;46.718;7.690;2023-04-27T01:26:50;9.61;80.26
68609;SHT31;55581;46.718;7.690;2023-04-27T01:29:18;9.67;80.78
68609;SHT31;55581;46.718;7.690;2023-04-27T01:31:43;9.57;80.94
68609;SHT31;55581;46.718;7.690;2023-04-27T01:34:09;9.37;80.64
68609;SHT31;55581;46.718;7.690;2023-04-27T01:36:38;9.15;80.14
68609;SHT31;55581;46.718;7.690;2023-04-27T01:39:03;9.01;81.08
68609;SHT31;55581;46.718;7.690;2023-04-27T01:41:33;8.93;82.98
68609;SHT31;55581;46.718;7.690;2023-04-27T01:43:59;8.81;83.45
68609;SHT31;55581;46.718;7.690;2023-04-27T01:46:27;8.75;84.06
68609;SHT31;55581;46.718;7.690;2023-04-27T01:48:55;8.82;83.46
68609;SHT31;55581;46.718;7.690;2023-04-27T01:51:23;8.72;83.06
68609;SHT31;55581;46.718;7.690;2023-04-27T01:53:48;8.70;82.42
68609;SHT31;55581;46.718;7.690;2023-04-27T01:56:13;8.67;82.37
68609;SHT31;55581;46.718;7.690;2023-04-27T01:58:39;8.59;83.12
68609;SHT31;55581;46.718;7.690;2023-04-27T02:01:04;8.56;83.77
68609;SHT31;55581;46.718;7.690;2023-04-27T02:03:30;8.52;83.98
68609;SHT31;55581;46.718;7.690;2023-04-27T02:05:57;8.40;82.44
68609;SHT31;55581;46.718;7.690;2023-04-27T02:08:25;8.37;82.73
68609;SHT31;55581;46.718;7.690;2023-04-27T02:10:51;8.28;82.62
68609;SHT31;55581;46.718;7.690;2023-04-27T02:13:19;8.23;82.77
68609;SHT31;55581;46.718;7.690;2023-04-27T02:15:45;8.12;82.41
68609;SHT31;55581;46.718;7.690;2023-04-27T02:18:10;8.10;83.04
68609;SHT31;55581;46.718;7.690;2023-04-27T02:20:36;8.02;84.21
68609;SHT31;55581;46.718;7.690;2023-04-27T02:23:01;7.97;84.00
68609;SHT31;55581;46.718;7.690;2023-04-27T02:25:27;7.91;83.03
68609;SHT31;55581;46.718;7.690;2023-04-27T02:27:52;7.87;83.75
68609;SHT31;55581;46.718;7.690;2023-04-27T02:30:17;7.84;83.12
68609;SHT31;55581;46.718;7.690;2023-04-27T02:32:43;7.73;83.68
68609;SHT31;55581;46.718;7.690;2023-04-27T02:35:09;7.66;84.50
68609;SHT31;55581;46.718;7.690;2023-04-27T02:37:34;7.59;85.23
68609;SHT31;55581;46.718;7.690;2023-04-27T02:40:03;7.59;85.79
68609;SHT31;55581;46.718;7.690;2023-04-27T02:42:33;7.56;85.95
68609;SHT31;55581;46.718;7.690;2023-04-27T02:45:04;7.54;86.09
68609;SHT31;55581;46.718;7.690;2023-04-27T02:47:33;7.54;85.83
68609;SHT31;55581;46.718;7.690;2023-04-27T02:49:59;7.59;85.56
68609;SHT31;55581;46.718;7.690;2023-04-27T02:52:25;7.59;85.77
68609;SHT31;55581;46.718;7.690;2023-04-27T02:54:53;7.59;85.60
68609;SHT31;55581;46.718;7.690;2023-04-27T02:57:18;7.68;85.22
68609;SHT31;55581;46.718;7.690;2023-04-27T02:59:43;7.74;84.64
68609;SHT31;55581;46.718;7.690;2023-04-27T03:02:09;7.78;84.10
68609;SHT31;55581;46.718;7.690;2023-04-27T03:04:34;7.77;83.48
68609;SHT31;55581;46.718;7.690;2023-04-27T03:07:01;7.78;82.81
68609;SHT31;55581;46.718;7.690;2023-04-27T03:09:27;7.77;82.76
68609;SHT31;55581;46.718;7.690;2023-04-27T03:11:55;7.77;82.50
68609;SHT31;55581;46.718;7.690;2023-04-27T03:14:20;7.73;82.45
68609;SHT31;55581;46.718;7.690;2023-04-27T03:16:48;7.71;81.85
68609;SHT31;55581;46.718;7.690;2023-04-27T03:19:14;7.64;82.32
68609;SHT31;55581;46.718;7.690;2023-04-27T03:21:39;7.67;81.93
68609;SHT31;55581;46.718;7.690;2023-04-27T03:24:05;7.64;82.12
68609;SHT31;55581;46.718;7.690;2023-04-27T03:26:30;7.59;83.08
68609;SHT31;55581;46.718;7.690;2023-04-27T03:28:58;7.59;82.60
68609;SHT31;55581;46.718;7.690;2023-04-27T03:31:24;7.54;82.90
68609;SHT31;55581;46.718;7.690;2023-04-27T03:33:49;7.49;83.32
68609;SHT31;55581;46.718;7.690;2023-04-27T03:36:14;7.49;83.26
68609;SHT31;55581;46.718;7.690;2023-04-27T03:38:40;7.51;83.16
68609;SHT31;55581;46.718;7.690;2023-04-27T03:41:05;7.43;83.34
68609;SHT31;55581;46.718;7.690;2023-04-27T03:43:33;7.36;84.18
68609;SHT31;55581;46.718;7.690;2023-04-27T03:45:58;7.32;84.42
68609;SHT31;55581;46.718;7.690;2023-04-27T03:48:24;7.36;84.69
68609;SHT31;55581;46.718;7.690;2023-04-27T03:50:49;7.42;83.68
68609;SHT31;55581;46.718;7.690;2023-04-27T03:53:15;7.33;84.47
68609;SHT31;55581;46.718;7.690;2023-04-27T03:55:42;7.33;84.22
68609;SHT31;55581;46.718;7.690;2023-04-27T03:58:08;7.30;84.45
68609;SHT31;55581;46.718;7.690;2023-04-27T04:00:35;7.30;84.52
68609;SHT31;55581;46.718;7.690;2023-04-27T04:03:01;7.33;84.03
68609;SHT31;55581;46.718;7.690;2023-04-27T04:05:30;7.22;84.26
68609;SHT31;55581;46.718;7.690;2023-04-27T04:07:56;7.24;84.06
68609;SHT31;55581;46.718;7.690;2023-04-27T04:10:22;7.20;83.86
68609;SHT31;55581;46.718;7.690;2023-04-27T04:12:51;7.19;83.81
68609;SHT31;55581;46.718;7.690;2023-04-27T04:15:17;7.24;82.52
68609;SHT31;55581;46.718;7.690;2023-04-27T04:17:42;7.27;83.18
68609;SHT31;55581;46.718;7.690;2023-04-27T04:20:08;7.20;83.07
68609;SHT31;55581;46.718;7.690;2023-04-27T04:22:37;7.18;83.67
68609;SHT31;55581;46.718;7.690;2023-04-27T04:25:03;7.26;83.28
68609;SHT31;55581;46.718;7.690;2023-04-27T04:27:29;7.27;82.91
68609;SHT31;55581;46.718;7.690;2023-04-27T04:29:58;7.27;82.65
68609;SHT31;55581;46.718;7.690;2023-04-27T04:32:31;7.24;82.88
68609;SHT31;55581;46.718;7.690;2023-04-27T04:35:00;7.24;83.66
68609;SHT31;55581;46.718;7.690;2023-04-27T04:37:26;7.22;83.30
68609;SHT31;55581;46.718;7.690;2023-04-27T04:39:52;7.20;83.10
68609;SHT31;55581;46.718;7.690;2023-04-27T04:42:17;7.20;83.64
68609;SHT31;55581;46.718;7.690;2023-04-27T04:44:43;7.27;83.95
68609;SHT31;55581;46.718;7.690;2023-04-27T04:47:08;7.40;83.43
68609;SHT31;55581;46.718;7.690;2023-04-27T04:49:34;7.63;82.87
68609;SHT31;55581;46.718;7.690;2023-04-27T04:52:00;7.68;82.49
68609;SHT31;55581;46.718;7.690;2023-04-27T04:54:25;7.70;83.11
68609;SHT31;55581;46.718;7.690;2023-04-27T04:56:51;7.68;83.12
68609;SHT31;55581;46.718;7.690;2023-04-27T04:59:17;7.60;83.50
68609;SHT31;55581;46.718;7.690;2023-04-27T05:01:42;7.44;83.88
68609;SHT31;55581;46.718;7.690;2023-04-27T05:04:07;7.46;84.58
68609;SHT31;55581;46.718;7.690;2023-04-27T05:06:33;7.40;84.60
68609;SHT31;55581;46.718;7.690;2023-04-27T05:09:01;7.42;84.92
68609;SHT31;55581;46.718;7.690;2023-04-27T05:11:29;7.37;85.13
68609;SHT31;55581;46.718;7.690;2023-04-27T05:13:54;7.33;85.58
68609;SHT31;55581;46.718;7.690;2023-04-27T05:16:20;7.33;85.27
68609;SHT31;55581;46.718;7.690;2023-04-27T05:18:45;7.24;85.44
68609;SHT31;55581;46.718;7.690;2023-04-27T05:21:16;7.30;84.71
68609;SHT31;55581;46.718;7.690;2023-04-27T05:23:45;7.23;85.28
68609;SHT31;55581;46.718;7.690;2023-04-27T05:26:15;7.27;84.34
68609;SHT31;55581;46.718;7.690;2023-04-27T05:28:40;7.26;83.89
68609;SHT31;55581;46.718;7.690;2023-04-27T05:31:06;7.29;84.21
68609;SHT31;55581;46.718;7.690;2023-04-27T05:33:31;7.32;84.09
68609;SHT31;55581;46.718;7.690;2023-04-27T05:35:59;7.33;84.11
68609;SHT31;55581;46.718;7.690;2023-04-27T05:38:25;7.34;83.84
68609;SHT31;55581;46.718;7.690;2023-04-27T05:40:54;7.40;83.62
68609;SHT31;55581;46.718;7.690;2023-04-27T05:43:20;7.46;83.88
68609;SHT31;55581;46.718;7.690;2023-04-27T05:45:46;7.47;84.25
68609;SHT31;55581;46.718;7.690;2023-04-27T05:48:11;7.59;83.02
68609;SHT31;55581;46.718;7.690;2023-04-27T05:50:38;7.68;83.36
68609;SHT31;55581;46.718;7.690;2023-04-27T05:53:06;7.75;82.53
68609;SHT31;55581;46.718;7.690;2023-04-27T05:55:32;7.85;81.73
68609;SHT31;55581;46.718;7.690;2023-04-27T05:57:58;7.91;81.45
68609;SHT31;55581;46.718;7.690;2023-04-27T06:00:23;8.02;82.72
68609;SHT31;55581;46.718;7.690;2023-04-27T06:02:49;8.10;84.09
68609;SHT31;55581;46.718;7.690;2023-04-27T06:05:14;8.13;84.25
68609;SHT31;55581;46.718;7.690;2023-04-27T06:07:40;8.17;84.51
68609;SHT31;55581;46.718;7.690;2023-04-27T06:10:08;8.30;84.51
68609;SHT31;55581;46.718;7.690;2023-04-27T06:12:34;8.39;85.06
68609;SHT31;55581;46.718;7.690;2023-04-27T06:14:59;8.40;84.42
68609;SHT31;55581;46.718;7.690;2023-04-27T06:17:29;8.33;84.43
68609;SHT31;55581;46.718;7.690;2023-04-27T06:19:57;8.28;84.65
68609;SHT31;55581;46.718;7.690;2023-04-27T06:22:22;8.29;85.42
68609;SHT31;55581;46.718;7.690;2023-04-27T06:24:51;8.23;84.27
68609;SHT31;55581;46.718;7.690;2023-04-27T06:27:16;8.28;84.01
68609;SHT31;55581;46.718;7.690;2023-04-27T06:29:42;8.30;83.67
68609;SHT31;55581;46.718;7.690;2023-04-27T06:32:07;8.34;83.02
68609;SHT31;55581;46.718;7.690;2023-04-27T06:34:33;8.40;83.74
68609;SHT31;55581;46.718;7.690;2023-04-27T06:36:59;8.53;83.19
68609;SHT31;55581;46.718;7.690;2023-04-27T06:39:24;8.75;81.58
68609;SHT31;55581;46.718;7.690;2023-04-27T06:41:50;8.85;82.52
68609;SHT31;55581;46.718;7.690;2023-04-27T06:44:15;9.07;81.29
68609;SHT31;55581;46.718;7.690;2023-04-27T06:46:43;9.37;81.57
68609;SHT31;55581;46.718;7.690;2023-04-27T06:49:08;9.46;80.24
68609;SHT31;55581;46.718;7.690;2023-04-27T06:51:34;9.69;81.21
68609;SHT31;55581;46.718;7.690;2023-04-27T06:53:59;9.88;80.31
68609;SHT31;55581;46.718;7.690;2023-04-27T06:56:25;10.13;79.65
68609;SHT31;55581;46.718;7.690;2023-04-27T06:58:50;10.25;78.84
68609;SHT31;55581;46.718;7.690;2023-04-27T07:01:15;10.30;79.00
68609;SHT31;55581;46.718;7.690;2023-04-27T07:03:41;10.52;77.61
68609;SHT31;55581;46.718;7.690;2023-04-27T07:06:07;10.53;77.95
68609;SHT31;55581;46.718;7.690;2023-04-27T07:08:33;10.63;77.83
68609;SHT31;55581;46.718;7.690;2023-04-27T07:10:58;10.84;78.01
68609;SHT31;55581;46.718;7.690;2023-04-27T07:13:23;11.00;77.24
68609;SHT31;55581;46.718;7.690;2023-04-27T07:15:54;11.19;76.17
68609;SHT31;55581;46.718;7.690;2023-04-27T07:18:21;11.39;75.99
68609;SHT31;55581;46.718;7.690;2023-04-27T07:20:47;11.49;74.54
68609;SHT31;55581;46.718;7.690;2023-04-27T07:23:12;11.76;73.89
68609;SHT31;55581;46.718;7.690;2023-04-27T07:25:37;11.87;73.12
68609;SHT31;55581;46.718;7.690;2023-04-27T07:28:05;12.04;71.79
68609;SHT31;55581;46.718;7.690;2023-04-27T07:30:30;12.12;71.45
68609;SHT31;55581;46.718;7.690;2023-04-27T07:33:00;12.31;70.42
68609;SHT31;55581;46.718;7.690;2023-04-27T07:35:26;12.50;68.04
68609;SHT31;55581;46.718;7.690;2023-04-27T07:37:54;12.52;67.51
68609;SHT31;55581;46.718;7.690;2023-04-27T07:40:21;12.45;69.82
68609;SHT31;55581;46.718;7.690;2023-04-27T07:42:48;12.35;70.22
68609;SHT31;55581;46.718;7.690;2023-04-27T07:45:13;12.39;68.55
68609;SHT31;55581;46.718;7.690;2023-04-27T07:47:44;12.56;68.09
68609;SHT31;55581;46.718;7.690;2023-04-27T07:50:10;12.80;68.43
68609;SHT31;55581;46.718;7.690;2023-04-27T07:52:38;12.64;69.79
68609;SHT31;55581;46.718;7.690;2023-04-27T07:55:04;12.64;70.89
68609;SHT31;55581;46.718;7.690;2023-04-27T07:57:30;12.73;71.10
68609;SHT31;55581;46.718;7.690;2023-04-27T07:59:56;12.83;72.10
68609;SHT31;55581;46.718;7.690;2023-04-27T08:02:21;12.86;71.13
68609;SHT31;55581;46.718;7.690;2023-04-27T08:04:47;12.80;70.73
68609;SHT31;55581;46.718;7.690;2023-04-27T08:07:14;13.03;68.68
68609;SHT31;55581;46.718;7.690;2023-04-27T08:09:40;13.12;69.01
68609;SHT31;55581;46.718;7.690;2023-04-27T08:12:05;13.21;69.15
68609;SHT31;55581;46.718;7.690;2023-04-27T08:14:33;13.31;65.73
68609;SHT31;55581;46.718;7.690;2023-04-27T08:16:58;13.45;67.55
68609;SHT31;55581;46.718;7.690;2023-04-27T08:19:24;13.81;67.13
68609;SHT31;55581;46.718;7.690;2023-04-27T08:21:52;13.76;64.14
68609;SHT31;55581;46.718;7.690;2023-04-27T08:24:17;13.84;66.10
68609;SHT31;55581;46.718;7.690;2023-04-27T08:26:44;13.93;67.22
68609;SHT31;55581;46.718;7.690;2023-04-27T08:29:10;14.04;67.48
68609;SHT31;55581;46.718;7.690;2023-04-27T08:31:38;13.81;67.24
68609;SHT31;55581;46.718;7.690;2023-04-27T08:34:03;13.94;67.34
68609;SHT31;55581;46.718;7.690;2023-04-27T08:36:29;14.00;67.10
68609;SHT31;55581;46.718;7.690;2023-04-27T08:38:54;14.07;66.04
68609;SHT31;55581;46.718;7.690;2023-04-27T08:41:23;14.18;65.50
68609;SHT31;55581;46.718;7.690;2023-04-27T08:43:49;13.81;58.41
68609;SHT31;55581;46.718;7.690;2023-04-27T08:46:19;13.98;65.97
68609;SHT31;55581;46.718;7.690;2023-04-27T08:48:54;14.17;67.18
68609;SHT31;55581;46.718;7.690;2023-04-27T08:51:21;14.42;64.56
68609;SHT31;55581;46.718;7.690;2023-04-27T08:53:52;14.39;62.37
68609;SHT31;55581;46.718;7.690;2023-04-27T08:56:18;14.43;59.85
68609;SHT31;55581;46.718;7.690;2023-04-27T08:58:44;14.51;59.69
68609;SHT31;55581;46.718;7.690;2023-04-27T09:01:10;14.69;62.06
68609;SHT31;55581;46.718;7.690;2023-04-27T09:03:36;14.86;63.35
68609;SHT31;55581;46.718;7.690;2023-04-27T09:06:03;14.89;63.93
68609;SHT31;55581;46.718;7.690;2023-04-27T09:08:39;14.90;61.52
68609;SHT31;55581;46.718;7.690;2023-04-27T09:11:05;14.93;60.33
68609;SHT31;55581;46.718;7.690;2023-04-27T09:13:34;14.89;57.95
68609;SHT31;55581;46.718;7.690;2023-04-27T09:16:00;14.94;61.05
68609;SHT31;55581;46.718;7.690;2023-04-27T09:18:26;15.07;60.27
68609;SHT31;55581;46.718;7.690;2023-04-27T09:20:52;15.00;57.52
68609;SHT31;55581;46.718;7.690;2023-04-27T09:23:31;14.93;58.50
68609;SHT31;55581;46.718;7.690;2023-04-27T09:26:00;15.24;56.48
68609;SHT31;55581;46.718;7.690;2023-04-27T09:28:29;15.24;56.63
68609;SHT31;55581;46.718;7.690;2023-04-27T09:31:00;15.30;56.83
68609;SHT31;55581;46.718;7.690;2023-04-27T09:33:31;15.38;54.15
68609;SHT31;55581;46.718;7.690;2023-04-27T09:36:01;15.46;54.83
68609;SHT31;55581;46.718;7.690;2023-04-27T09:38:28;15.61;57.05
68609;SHT31;55581;46.718;7.690;2023-04-27T09:40:58;15.67;57.62
68609;SHT31;55581;46.718;7.690;2023-04-27T09:43:24;15.96;54.64
68609;SHT31;55581;46.718;7.690;2023-04-27T09:45:53;15.94;54.01
68609;SHT31;55581;46.718;7.690;2023-04-27T09:48:23;15.93;53.03
68609;SHT31;55581;46.718;7.690;2023-04-27T09:50:50;15.86;54.84
68609;SHT31;55581;46.718;7.690;2023-04-27T09:53:49;15.90;55.83
68609;SHT31;55581;46.718;7.690;2023-04-27T09:59:11;16.18;54.31
68609;SHT31;55581;46.718;7.690;2023-04-27T10:01:45;16.45;53.75
68609;SHT31;55581;46.718;7.690;2023-04-27T10:07:50;16.90;52.11
68609;SHT31;55581;46.718;7.690;2023-04-27T10:10:17;16.97;52.21
68609;SHT31;55581;46.718;7.690;2023-04-27T10:12:59;17.06;54.69
68609;SHT31;55581;46.718;7.690;2023-04-27T10:15:26;17.34;52.66
68609;SHT31;55581;46.718;7.690;2023-04-27T10:17:55;17.20;51.49
68609;SHT31;55581;46.718;7.690;2023-04-27T10:20:30;17.07;52.15
68609;SHT31;55581;46.718;7.690;2023-04-27T10:22:56;17.14;51.98
68609;SHT31;55581;46.718;7.690;2023-04-27T10:25:26;17.32;49.64
68609;SHT31;55581;46.718;7.690;2023-04-27T10:27:59;17.17;53.11
68609;SHT31;55581;46.718;7.690;2023-04-27T10:30:36;17.00;54.17
68609;SHT31;55581;46.718;7.690;2023-04-27T10:33:09;17.09;53.31
68609;SHT31;55581;46.718;7.690;2023-04-27T10:35:42;17.27;53.41
68609;SHT31;55581;46.718;7.690;2023-04-27T10:38:16;17.45;51.55
68609;SHT31;55581;46.718;7.690;2023-04-27T10:40:56;17.59;51.52
68609;SHT31;55581;46.718;7.690;2023-04-27T10:43:27;17.64;49.83
68609;SHT31;55581;46.718;7.690;2023-04-27T10:45:52;17.34;51.91
68609;SHT31;55581;46.718;7.690;2023-04-27T10:48:18;17.21;50.92
68609;SHT31;55581;46.718;7.690;2023-04-27T10:50:44;17.24;52.92
68609;SHT31;55581;46.718;7.690;2023-04-27T10:53:11;17.48;53.23
68609;SHT31;55581;46.718;7.690;2023-04-27T10:55:40;17.64;52.16
68609;SHT31;55581;46.718;7.690;2023-04-27T10:58:05;18.13;53.34
68609;SHT31;55581;46.718;7.690;2023-04-27T11:00:37;18.41;50.01
68609;SHT31;55581;46.718;7.690;2023-04-27T11:03:12;18.59;51.08
68609;SHT31;55581;46.718;7.690;2023-04-27T11:05:38;18.36;49.45
68609;SHT31;55581;46.718;7.690;2023-04-27T11:08:17;18.20;51.27
68609;SHT31;55581;46.718;7.690;2023-04-27T11:10:45;18.17;49.20
68609;SHT31;55581;46.718;7.690;2023-04-27T11:13:22;18.54;51.12
68609;SHT31;55581;46.718;7.690;2023-04-27T11:15:50;18.86;51.18
68609;SHT31;55581;46.718;7.690;2023-04-27T11:18:19;19.12;48.89
68609;SHT31;55581;46.718;7.690;2023-04-27T11:20:53;19.41;47.99
68609;SHT31;55581;46.718;7.690;2023-04-27T11:23:29;19.40;48.34
68609;SHT31;55581;46.718;7.690;2023-04-27T11:26:22;19.96;48.01
68609;SHT31;55581;46.718;7.690;2023-04-27T11:29:07;19.48;47.75
68609;SHT31;55581;46.718;7.690;2023-04-27T11:31:47;19.79;47.32
68609;SHT31;55581;46.718;7.690;2023-04-27T11:34:17;19.46;49.51
68609;SHT31;55581;46.718;7.690;2023-04-27T11:36:43;19.82;50.13
68609;SHT31;55581;46.718;7.690;2023-04-27T11:39:15;19.95;50.05
68609;SHT31;55581;46.718;7.690;2023-04-27T11:41:42;20.04;49.12
68609;SHT31;55581;46.718;7.690;2023-04-27T11:44:12;19.74;48.03
68609;SHT31;55581;46.718;7.690;2023-04-27T11:46:38;19.77;49.11
68609;SHT31;55581;46.718;7.690;2023-04-27T11:49:06;19.88;48.69
68609;SHT31;55581;46.718;7.690;2023-04-27T11:51:33;20.29;46.36
68609;SHT31;55581;46.718;7.690;2023-04-27T11:54:04;20.09;48.85
68609;SHT31;55581;46.718;7.690;2023-04-27T11:56:37;19.65;49.29
68609;SHT31;55581;46.718;7.690;2023-04-27T11:59:03;19.23;49.39
68609;SHT31;55581;46.718;7.690;2023-04-27T12:01:32;19.50;48.13
68609;SHT31;55581;46.718;7.690;2023-04-27T12:03:59;19.19;47.28
68609;SHT31;55581;46.718;7.690;2023-04-27T12:06:26;19.13;48.69
68609;SHT31;55581;46.718;7.690;2023-04-27T12:08:56;19.05;48.74
68609;SHT31;55581;46.718;7.690;2023-04-27T12:11:24;18.79;48.74
68609;SHT31;55581;46.718;7.690;2023-04-27T12:13:50;19.06;48.57
68609;SHT31;55581;46.718;7.690;2023-04-27T12:16:16;19.27;49.25
68609;SHT31;55581;46.718;7.690;2023-04-27T12:18:42;19.22;48.87
68609;SHT31;55581;46.718;7.690;2023-04-27T12:21:07;18.99;48.41
68609;SHT31;55581;46.718;7.690;2023-04-27T12:23:34;19.16;47.97
68609;SHT31;55581;46.718;7.690;2023-04-27T12:26:00;19.13;47.83
68609;SHT31;55581;46.718;7.690;2023-04-27T12:28:27;18.76;48.34
68609;SHT31;55581;46.718;7.690;2023-04-27T12:30:52;19.05;48.31
68609;SHT31;55581;46.718;7.690;2023-04-27T12:33:17;19.51;49.16
68609;SHT31;55581;46.718;7.690;2023-04-27T12:35:43;19.93;46.91
68609;SHT31;55581;46.718;7.690;2023-04-27T12:38:10;19.92;47.38
68609;SHT31;55581;46.718;7.690;2023-04-27T12:40:36;20.15;45.59
68609;SHT31;55581;46.718;7.690;2023-04-27T12:43:01;19.50;46.70
68609;SHT31;55581;46.718;7.690;2023-04-27T12:45:27;19.44;47.70
68609;SHT31;55581;46.718;7.690;2023-04-27T12:47:52;19.54;47.99
68609;SHT31;55581;46.718;7.690;2023-04-27T12:50:21;19.67;47.37
68609;SHT31;55581;46.718;7.690;2023-04-27T12:52:46;19.31;48.79
68609;SHT31;55581;46.718;7.690;2023-04-27T12:55:12;19.09;48.64
68609;SHT31;55581;46.718;7.690;2023-04-27T12:57:38;19.33;47.42
68609;SHT31;55581;46.718;7.690;2023-04-27T13:00:04;19.62;47.77
68609;SHT31;55581;46.718;7.690;2023-04-27T13:02:34;19.77;47.45
68609;SHT31;55581;46.718;7.690;2023-04-27T13:04:59;20.16;46.77
68609;SHT31;55581;46.718;7.690;2023-04-27T13:07:24;20.54;45.68
68609;SHT31;55581;46.718;7.690;2023-04-27T13:09:50;20.58;44.90
68609;SHT31;55581;46.718;7.690;2023-04-27T13:12:18;20.39;46.79
68609;SHT31;55581;46.718;7.690;2023-04-27T13:14:45;20.13;47.34
68609;SHT31;55581;46.718;7.690;2023-04-27T13:17:11;19.99;46.72
68609;SHT31;55581;46.718;7.690;2023-04-27T13:19:36;20.00;46.78
68609;SHT31;55581;46.718;7.690;2023-04-27T13:22:02;19.97;46.72
68609;SHT31;55581;46.718;7.690;2023-04-27T13:24:28;20.17;47.15
68609;SHT31;55581;46.718;7.690;2023-04-27T13:26:53;20.23;47.39
68609;SHT31;55581;46.718;7.690;2023-04-27T13:29:19;20.52;45.83
68609;SHT31;55581;46.718;7.690;2023-04-27T13:31:45;20.05;46.36
68609;SHT31;55581;46.718;7.690;2023-04-27T13:34:10;20.33;45.81
68609;SHT31;55581;46.718;7.690;2023-04-27T13:36:36;20.52;46.87
68609;SHT31;55581;46.718;7.690;2023-04-27T13:39:06;20.74;44.76
68609;SHT31;55581;46.718;7.690;2023-04-27T13:41:32;20.48;45.33
68609;SHT31;55581;46.718;7.690;2023-04-27T13:43:58;20.04;47.95
68609;SHT31;55581;46.718;7.690;2023-04-27T13:46:23;19.78;46.70
68609;SHT31;55581;46.718;7.690;2023-04-27T13:48:48;19.69;47.44
68609;SHT31;55581;46.718;7.690;2023-04-27T13:51:14;19.68;47.54
68609;SHT31;55581;46.718;7.690;2023-04-27T13:53:39;19.97;47.38
68609;SHT31;55581;46.718;7.690;2023-04-27T13:56:05;20.15;47.35
68609;SHT31;55581;46.718;7.690;2023-04-27T13:58:30;20.30;46.30
68609;SHT31;55581;46.718;7.690;2023-04-27T14:00:56;20.06;48.10
68609;SHT31;55581;46.718;7.690;2023-04-27T14:03:25;19.82;46.74
68609;SHT31;55581;46.718;7.690;2023-04-27T14:05:50;19.85;47.48
68609;SHT31;55581;46.718;7.690;2023-04-27T14:08:16;19.97;48.57
68609;SHT31;55581;46.718;7.690;2023-04-27T14:10:44;19.71;46.78
68609;SHT31;55581;46.718;7.690;2023-04-27T14:13:12;19.86;46.86
68609;SHT31;55581;46.718;7.690;2023-04-27T14:15:38;19.64;46.91
68609;SHT31;55581;46.718;7.690;2023-04-27T14:18:04;19.68;47.26
68609;SHT31;55581;46.718;7.690;2023-04-27T14:20:33;19.83;47.17
68609;SHT31;55581;46.718;7.690;2023-04-27T14:23:02;19.72;46.54
68609;SHT31;55581;46.718;7.690;2023-04-27T14:25:28;19.77;46.33
68609;SHT31;55581;46.718;7.690;2023-04-27T14:28:01;19.67;48.04
68609;SHT31;55581;46.718;7.690;2023-04-27T14:30:26;19.53;47.50
68609;SHT31;55581;46.718;7.690;2023-04-27T14:32:52;19.77;46.22
68609;SHT31;55581;46.718;7.690;2023-04-27T14:35:18;19.78;47.35
68609;SHT31;55581;46.718;7.690;2023-04-27T14:37:44;19.74;47.29
68609;SHT31;55581;46.718;7.690;2023-04-27T14:40:13;19.81;47.33
68609;SHT31;55581;46.718;7.690;2023-04-27T14:42:38;19.86;46.40
68609;SHT31;55581;46.718;7.690;2023-04-27T14:45:04;19.85;47.13
68609;SHT31;55581;46.718;7.690;2023-04-27T14:47:30;19.92;47.17
68609;SHT31;55581;46.718;7.690;2023-04-27T14:49:55;20.04;46.26
68609;SHT31;55581;46.718;7.690;2023-04-27T14:52:21;19.89;47.07
68609;SHT31;55581;46.718;7.690;2023-04-27T14:54:46;19.93;47.54
68609;SHT31;55581;46.718;7.690;2023-04-27T14:57:11;19.62;47.78
68609;SHT31;55581;46.718;7.690;2023-04-27T14:59:39;19.64;47.09
68609;SHT31;55581;46.718;7.690;2023-04-27T15:02:05;19.95;45.85
68609;SHT31;55581;46.718;7.690;2023-04-27T15:04:34;19.95;46.50
68609;SHT31;55581;46.718;7.690;2023-04-27T15:07:00;20.12;44.89
68609;SHT31;55581;46.718;7.690;2023-04-27T15:09:25;20.30;46.20
68609;SHT31;55581;46.718;7.690;2023-04-27T15:11:53;20.47;44.81
68609;SHT31;55581;46.718;7.690;2023-04-27T15:14:18;20.43;44.90
68609;SHT31;55581;46.718;7.690;2023-04-27T15:16:44;20.58;44.11
68609;SHT31;55581;46.718;7.690;2023-04-27T15:19:09;20.47;45.26
68609;SHT31;55581;46.718;7.690;2023-04-27T15:21:35;20.43;44.23
68609;SHT31;55581;46.718;7.690;2023-04-27T15:24:00;20.08;44.98
68609;SHT31;55581;46.718;7.690;2023-04-27T15:26:26;20.45;43.42
68609;SHT31;55581;46.718;7.690;2023-04-27T15:28:53;20.58;43.23
68609;SHT31;55581;46.718;7.690;2023-04-27T15:31:19;20.65;42.43
68609;SHT31;55581;46.718;7.690;2023-04-27T15:33:44;20.88;42.53
68609;SHT31;55581;46.718;7.690;2023-04-27T15:36:12;20.84;42.46
68609;SHT31;55581;46.718;7.690;2023-04-27T15:38:37;20.89;43.64
68609;SHT31;55581;46.718;7.690;2023-04-27T15:41:02;20.88;42.08
68609;SHT31;55581;46.718;7.690;2023-04-27T15:43:28;20.55;42.53